Un Pendik — TCOD2 — position and weather

sailwx.info

Track history (hours):
 
Tides and Currents Weather Stations Pressure Air Temp Water Temp Dewpoint Dewpoint Depression Visibility Wind Speed Wind Dir Waves Ship Positions

Un Pendik

Last reported at 2014-Oct-24 08:33 UTC. Time now 2014-Oct-25 04:16 UTC.
Position N 37°50' E 015°56'.

Length 193 m; draft 6.5 m.

Type: Ship (hazmat cat A). MMSI: 271000792.

Date/timePositionNaut miles runAvg speedWind from/ knotsBaromVisibWave heightAir tempDewpointWater temp
2014-Oct-24 08:33N 37°50' E 015°56'2317.4
2014-Oct-24 07:14N 38°06' E 015°35'1315.9
2014-Oct-24 06:24N 38°18' E 015°40'52019.4
2014-Oct-23 03:31N 42°56' E 005°60'1212.3
2014-Oct-23 02:33N 43°06' E 005°54'0 0.0
2014-Oct-23 01:33N 43°06' E 005°54'0 0.0
2014-Oct-23 00:33N 43°06' E 005°54'0 0.0
2014-Oct-22 23:34N 43°06' E 005°54'0 0.0
2014-Oct-22 22:33N 43°06' E 005°54'0 0.0
2014-Oct-22 21:33N 43°06' E 005°54'0 0.0
2014-Oct-22 20:33N 43°06' E 005°54'0 0.0
2014-Oct-22 19:33N 43°06' E 005°54'0 0.0
2014-Oct-22 18:33N 43°06' E 005°54'0 0.0
2014-Oct-22 17:33N 43°06' E 005°54'0 0.0
2014-Oct-22 16:33N 43°06' E 005°54'0 0.0
2014-Oct-22 15:33N 43°06' E 005°54'0 0.0
2014-Oct-22 14:33N 43°06' E 005°54'0 0.0
2014-Oct-22 13:33N 43°06' E 005°54'0 0.2
2014-Oct-22 12:33N 43°06' E 005°54'6 6.4
2014-Oct-22 11:33N 43°02' E 006°01'5 4.8
2014-Oct-22 10:33N 42°59' E 006°06'29 9.6
2014-Oct-22 07:34N 42°54' E 006°44'  
2014-Oct-19 08:21N 40°51' E 028°30'1619.8
2014-Oct-19 07:33N 40°52' E 028°51'1817.8
2014-Oct-19 06:33N 40°51' E 029°15'1 1.1
2014-Oct-19 05:32N 40°51' E 029°16'0 0.0
2014-Oct-19 04:31N 40°51' E 029°16'0 0.0
2014-Oct-19 03:31N 40°51' E 029°16'0 0.0
2014-Oct-19 02:30N 40°51' E 029°16'0 0.0
2014-Oct-19 01:30N 40°51' E 029°16'0 0.0
2014-Oct-19 00:24N 40°51' E 029°16'0 0.0
2014-Oct-18 23:29N 40°51' E 029°16'0 0.0
2014-Oct-18 22:05N 40°51' E 029°16'0 0.0
2014-Oct-18 21:28N 40°51' E 029°16'0 0.0
2014-Oct-18 20:28N 40°51' E 029°16'0 0.0
2014-Oct-18 19:27N 40°51' E 029°16'0 0.0
2014-Oct-18 18:33N 40°51' E 029°16'0 0.0
2014-Oct-18 17:33N 40°51' E 029°16'0 0.0
2014-Oct-18 16:24N 40°51' E 029°16'0 0.1
2014-Oct-18 15:33N 40°51' E 029°16'1515.1
2014-Oct-18 14:33N 40°50' E 028°56'14216.8
2014-Oct-18 06:08N 39°59' E 026°03'1219.1
2014-Oct-18 05:30N 39°49' E 025°52'2819.9
2014-Oct-18 04:04N 39°24' E 025°36'11119.6
2014-Oct-17 22:24N 37°45' E 024°33'2119.3
2014-Oct-17 21:18N 37°27' E 024°18'1519.5
2014-Oct-17 20:32N 37°15' E 024°07'2119.5
2014-Oct-17 19:28N 36°58' E 023°51'1819.2
2014-Oct-17 18:33N 36°44' E 023°37'1919.4
2014-Oct-17 17:33N 36°30' E 023°21'1918.3
2014-Oct-17 16:30N 36°24' E 022°58'2220.1
2014-Oct-17 15:25N 36°20' E 022°32'33619.7
2014-Oct-16 22:20N 37°52' E 015°47'1817.3
2014-Oct-16 21:16N 38°08' E 015°35'1115.2
2014-Oct-16 20:31N 38°18' E 015°40'52019.3
2014-Oct-15 17:33N 42°55' E 005°60'1312.8
2014-Oct-15 16:34N 43°06' E 005°54'0 0.0
2014-Oct-15 15:33N 43°06' E 005°54'0 0.0
2014-Oct-15 14:33N 43°06' E 005°54'0 0.0
2014-Oct-15 13:33N 43°06' E 005°54'0 0.0
2014-Oct-15 12:33N 43°06' E 005°54'0 0.0
2014-Oct-15 11:33N 43°06' E 005°54'0 0.0
2014-Oct-15 10:34N 43°06' E 005°54'0 0.0
2014-Oct-15 09:33N 43°06' E 005°54'0 0.0
2014-Oct-15 08:33N 43°06' E 005°54'0 0.0
2014-Oct-15 07:33N 43°06' E 005°54'0 0.0
2014-Oct-15 06:33N 43°06' E 005°54'0 0.1
2014-Oct-15 05:33N 43°06' E 005°54'6 6.2
2014-Oct-15 04:33N 43°02' E 005°60'  
Track history (hours):
 
Tides and Currents Weather Stations Pressure Air Temp Water Temp Dewpoint Dewpoint Depression Visibility Wind Speed Wind Dir Waves Ship Positions

Un Pendik

Last reported at 2014-Oct-24 08:33 UTC. Time now 2014-Oct-25 04:16 UTC.
Position N 37°50' E 015°56'.

Length 193 m; draft 6.5 m.

Type: Ship (hazmat cat A). MMSI: 271000792.

Date/timePositionNaut miles runAvg speedWind from/ knotsBaromVisibWave heightAir tempDewpointWater temp
2014-Oct-24 08:33N 37°50' E 015°56'2317.4
2014-Oct-24 07:14N 38°06' E 015°35'1315.9
2014-Oct-24 06:24N 38°18' E 015°40'52019.4
2014-Oct-23 03:31N 42°56' E 005°60'1212.3
2014-Oct-23 02:33N 43°06' E 005°54'0 0.0
2014-Oct-23 01:33N 43°06' E 005°54'0 0.0
2014-Oct-23 00:33N 43°06' E 005°54'0 0.0
2014-Oct-22 23:34N 43°06' E 005°54'0 0.0
2014-Oct-22 22:33N 43°06' E 005°54'0 0.0
2014-Oct-22 21:33N 43°06' E 005°54'0 0.0
2014-Oct-22 20:33N 43°06' E 005°54'0 0.0
2014-Oct-22 19:33N 43°06' E 005°54'0 0.0
2014-Oct-22 18:33N 43°06' E 005°54'0 0.0
2014-Oct-22 17:33N 43°06' E 005°54'0 0.0
2014-Oct-22 16:33N 43°06' E 005°54'0 0.0
2014-Oct-22 15:33N 43°06' E 005°54'0 0.0
2014-Oct-22 14:33N 43°06' E 005°54'0 0.0
2014-Oct-22 13:33N 43°06' E 005°54'0 0.2
2014-Oct-22 12:33N 43°06' E 005°54'6 6.4
2014-Oct-22 11:33N 43°02' E 006°01'5 4.8
2014-Oct-22 10:33N 42°59' E 006°06'29 9.6
2014-Oct-22 07:34N 42°54' E 006°44'  
2014-Oct-19 08:21N 40°51' E 028°30'1619.8
2014-Oct-19 07:33N 40°52' E 028°51'1817.8
2014-Oct-19 06:33N 40°51' E 029°15'1 1.1
2014-Oct-19 05:32N 40°51' E 029°16'0 0.0
2014-Oct-19 04:31N 40°51' E 029°16'0 0.0
2014-Oct-19 03:31N 40°51' E 029°16'0 0.0
2014-Oct-19 02:30N 40°51' E 029°16'0 0.0
2014-Oct-19 01:30N 40°51' E 029°16'0 0.0
2014-Oct-19 00:24N 40°51' E 029°16'0 0.0
2014-Oct-18 23:29N 40°51' E 029°16'0 0.0
2014-Oct-18 22:05N 40°51' E 029°16'0 0.0
2014-Oct-18 21:28N 40°51' E 029°16'0 0.0
2014-Oct-18 20:28N 40°51' E 029°16'0 0.0
2014-Oct-18 19:27N 40°51' E 029°16'0 0.0
2014-Oct-18 18:33N 40°51' E 029°16'0 0.0
2014-Oct-18 17:33N 40°51' E 029°16'0 0.0
2014-Oct-18 16:24N 40°51' E 029°16'0 0.1
2014-Oct-18 15:33N 40°51' E 029°16'1515.1
2014-Oct-18 14:33N 40°50' E 028°56'14216.8
2014-Oct-18 06:08N 39°59' E 026°03'1219.1
2014-Oct-18 05:30N 39°49' E 025°52'2819.9
2014-Oct-18 04:04N 39°24' E 025°36'11119.6
2014-Oct-17 22:24N 37°45' E 024°33'2119.3
2014-Oct-17 21:18N 37°27' E 024°18'1519.5
2014-Oct-17 20:32N 37°15' E 024°07'2119.5
2014-Oct-17 19:28N 36°58' E 023°51'1819.2
2014-Oct-17 18:33N 36°44' E 023°37'1919.4
2014-Oct-17 17:33N 36°30' E 023°21'1918.3
2014-Oct-17 16:30N 36°24' E 022°58'2220.1
2014-Oct-17 15:25N 36°20' E 022°32'33619.7
2014-Oct-16 22:20N 37°52' E 015°47'1817.3
2014-Oct-16 21:16N 38°08' E 015°35'1115.2
2014-Oct-16 20:31N 38°18' E 015°40'52019.3
2014-Oct-15 17:33N 42°55' E 005°60'1312.8
2014-Oct-15 16:34N 43°06' E 005°54'0 0.0
2014-Oct-15 15:33N 43°06' E 005°54'0 0.0
2014-Oct-15 14:33N 43°06' E 005°54'0 0.0
2014-Oct-15 13:33N 43°06' E 005°54'0 0.0
2014-Oct-15 12:33N 43°06' E 005°54'0 0.0
2014-Oct-15 11:33N 43°06' E 005°54'0 0.0
2014-Oct-15 10:34N 43°06' E 005°54'0 0.0
2014-Oct-15 09:33N 43°06' E 005°54'0 0.0
2014-Oct-15 08:33N 43°06' E 005°54'0 0.0
2014-Oct-15 07:33N 43°06' E 005°54'0 0.0
2014-Oct-15 06:33N 43°06' E 005°54'0 0.1
2014-Oct-15 05:33N 43°06' E 005°54'6 6.2
2014-Oct-15 04:33N 43°02' E 005°60'  

Dump ship's entire track history